sensor_id;sensor_type;location;lat;lon;timestamp;pressure;altitude;pressure_sealevel;temperature;humidity
27294;BME280;14785;52.556;13.430;2022-12-10T00:00:33;100130.88;;;3.24;100.00
27294;BME280;14785;52.556;13.430;2022-12-10T00:03:03;100124.94;;;3.11;100.00
27294;BME280;14785;52.556;13.430;2022-12-10T00:05:36;100137.13;;;3.12;100.00
27294;BME280;14785;52.556;13.430;2022-12-10T00:08:02;100127.78;;;3.19;100.00
27294;BME280;14785;52.556;13.430;2022-12-10T00:10:33;100125.44;;;3.05;100.00
27294;BME280;14785;52.556;13.430;2022-12-10T00:13:00;100129.78;;;3.27;100.00
27294;BME280;14785;52.556;13.430;2022-12-10T00:15:27;100130.81;;;3.46;100.00
27294;BME280;14785;52.556;13.430;2022-12-10T00:17:53;100131.63;;;3.15;100.00
27294;BME280;14785;52.556;13.430;2022-12-10T00:20:21;100128.75;;;3.07;100.00
27294;BME280;14785;52.556;13.430;2022-12-10T00:22:47;100124.16;;;2.89;100.00
27294;BME280;14785;52.556;13.430;2022-12-10T00:25:13;100127.44;;;3.13;100.00
27294;BME280;14785;52.556;13.430;2022-12-10T00:27:41;100132.78;;;3.22;100.00
27294;BME280;14785;52.556;13.430;2022-12-10T00:30:07;100135.66;;;3.30;100.00
27294;BME280;14785;52.556;13.430;2022-12-10T00:32:32;100137.06;;;3.34;100.00
27294;BME280;14785;52.556;13.430;2022-12-10T00:34:58;100130.19;;;3.11;100.00
27294;BME280;14785;52.556;13.430;2022-12-10T00:37:23;100135.19;;;3.25;100.00
27294;BME280;14785;52.556;13.430;2022-12-10T00:39:49;100138.28;;;3.19;100.00
27294;BME280;14785;52.556;13.430;2022-12-10T00:42:14;100137.50;;;3.50;100.00
27294;BME280;14785;52.556;13.430;2022-12-10T00:44:39;100140.00;;;3.52;100.00
27294;BME280;14785;52.556;13.430;2022-12-10T00:47:05;100137.56;;;3.28;100.00
27294;BME280;14785;52.556;13.430;2022-12-10T00:49:33;100137.25;;;3.11;100.00
27294;BME280;14785;52.556;13.430;2022-12-10T00:52:02;100142.44;;;3.44;100.00
27294;BME280;14785;52.556;13.430;2022-12-10T00:54:27;100141.59;;;3.32;100.00
27294;BME280;14785;52.556;13.430;2022-12-10T00:56:53;100142.31;;;3.45;100.00
27294;BME280;14785;52.556;13.430;2022-12-10T00:59:18;100139.63;;;3.14;100.00
27294;BME280;14785;52.556;13.430;2022-12-10T01:01:55;100146.41;;;3.27;100.00
27294;BME280;14785;52.556;13.430;2022-12-10T01:04:41;100136.59;;;3.29;100.00
27294;BME280;14785;52.556;13.430;2022-12-10T01:07:22;100139.22;;;3.29;100.00
27294;BME280;14785;52.556;13.430;2022-12-10T01:09:47;100139.28;;;3.07;100.00
27294;BME280;14785;52.556;13.430;2022-12-10T01:12:15;100144.47;;;3.29;100.00
27294;BME280;14785;52.556;13.430;2022-12-10T01:14:43;100133.56;;;3.02;100.00
27294;BME280;14785;52.556;13.430;2022-12-10T01:17:09;100141.56;;;2.90;100.00
27294;BME280;14785;52.556;13.430;2022-12-10T01:19:41;100141.81;;;2.98;100.00
27294;BME280;14785;52.556;13.430;2022-12-10T01:22:06;100145.97;;;2.89;100.00
27294;BME280;14785;52.556;13.430;2022-12-10T01:24:32;100148.97;;;3.07;100.00
27294;BME280;14785;52.556;13.430;2022-12-10T01:27:00;100148.31;;;3.25;100.00
27294;BME280;14785;52.556;13.430;2022-12-10T01:29:26;100151.91;;;3.13;100.00
27294;BME280;14785;52.556;13.430;2022-12-10T01:31:54;100144.44;;;2.98;100.00
27294;BME280;14785;52.556;13.430;2022-12-10T01:34:21;100139.50;;;3.04;100.00
27294;BME280;14785;52.556;13.430;2022-12-10T01:36:50;100139.78;;;2.90;100.00
27294;BME280;14785;52.556;13.430;2022-12-10T01:39:17;100132.88;;;2.78;100.00
27294;BME280;14785;52.556;13.430;2022-12-10T01:41:49;100146.66;;;3.13;100.00
27294;BME280;14785;52.556;13.430;2022-12-10T01:46:53;100141.44;;;3.02;100.00
27294;BME280;14785;52.556;13.430;2022-12-10T01:49:31;100135.94;;;3.05;100.00
27294;BME280;14785;52.556;13.430;2022-12-10T01:51:57;100138.47;;;3.07;100.00
27294;BME280;14785;52.556;13.430;2022-12-10T01:54:38;100141.19;;;3.05;100.00
27294;BME280;14785;52.556;13.430;2022-12-10T01:57:16;100150.47;;;3.20;100.00
27294;BME280;14785;52.556;13.430;2022-12-10T01:59:43;100141.31;;;2.93;100.00
27294;BME280;14785;52.556;13.430;2022-12-10T02:05:05;100149.34;;;2.69;100.00
27294;BME280;14785;52.556;13.430;2022-12-10T02:10:43;100133.78;;;2.44;100.00
27294;BME280;14785;52.556;13.430;2022-12-10T02:18:41;100127.34;;;2.59;100.00
27294;BME280;14785;52.556;13.430;2022-12-10T02:21:30;100135.50;;;2.67;100.00
27294;BME280;14785;52.556;13.430;2022-12-10T02:24:01;100137.03;;;2.59;100.00
27294;BME280;14785;52.556;13.430;2022-12-10T02:29:20;100129.97;;;2.92;100.00
27294;BME280;14785;52.556;13.430;2022-12-10T02:31:55;100135.44;;;3.11;100.00
27294;BME280;14785;52.556;13.430;2022-12-10T02:34:23;100129.03;;;2.93;100.00
27294;BME280;14785;52.556;13.430;2022-12-10T02:36:51;100135.47;;;3.00;100.00
27294;BME280;14785;52.556;13.430;2022-12-10T02:39:27;100126.06;;;2.87;100.00
27294;BME280;14785;52.556;13.430;2022-12-10T02:41:55;100132.34;;;3.06;100.00
27294;BME280;14785;52.556;13.430;2022-12-10T02:44:27;100135.69;;;2.53;100.00
27294;BME280;14785;52.556;13.430;2022-12-10T02:46:56;100131.56;;;2.62;100.00
27294;BME280;14785;52.556;13.430;2022-12-10T02:49:24;100127.25;;;2.61;100.00
27294;BME280;14785;52.556;13.430;2022-12-10T02:51:56;100126.88;;;2.76;100.00
27294;BME280;14785;52.556;13.430;2022-12-10T02:54:42;100136.44;;;2.88;100.00
27294;BME280;14785;52.556;13.430;2022-12-10T02:57:49;100133.69;;;2.79;100.00
27294;BME280;14785;52.556;13.430;2022-12-10T03:00:20;100126.88;;;2.43;100.00
27294;BME280;14785;52.556;13.430;2022-12-10T03:08:23;100132.75;;;2.47;100.00
27294;BME280;14785;52.556;13.430;2022-12-10T03:10:55;100141.19;;;2.39;100.00
27294;BME280;14785;52.556;13.430;2022-12-10T03:13:32;100141.59;;;2.11;100.00
27294;BME280;14785;52.556;13.430;2022-12-10T03:16:04;100146.63;;;2.14;100.00
27294;BME280;14785;52.556;13.430;2022-12-10T03:18:34;100160.41;;;2.73;100.00
27294;BME280;14785;52.556;13.430;2022-12-10T03:21:05;100153.75;;;2.47;100.00
27294;BME280;14785;52.556;13.430;2022-12-10T03:23:35;100145.38;;;2.42;100.00
27294;BME280;14785;52.556;13.430;2022-12-10T03:26:03;100150.53;;;2.76;100.00
27294;BME280;14785;52.556;13.430;2022-12-10T03:28:32;100134.28;;;2.93;100.00
27294;BME280;14785;52.556;13.430;2022-12-10T03:31:00;100141.56;;;2.90;100.00
27294;BME280;14785;52.556;13.430;2022-12-10T03:33:30;100138.53;;;3.16;100.00
27294;BME280;14785;52.556;13.430;2022-12-10T03:35:57;100134.00;;;3.07;100.00
27294;BME280;14785;52.556;13.430;2022-12-10T03:38:25;100138.56;;;3.05;100.00
27294;BME280;14785;52.556;13.430;2022-12-10T03:40:51;100133.56;;;3.02;100.00
27294;BME280;14785;52.556;13.430;2022-12-10T03:43:16;100136.69;;;2.96;100.00
27294;BME280;14785;52.556;13.430;2022-12-10T03:45:44;100127.13;;;2.84;100.00
27294;BME280;14785;52.556;13.430;2022-12-10T03:48:10;100131.66;;;2.93;100.00
27294;BME280;14785;52.556;13.430;2022-12-10T03:50:35;100127.34;;;2.92;100.00
27294;BME280;14785;52.556;13.430;2022-12-10T03:53:01;100127.13;;;2.62;100.00
27294;BME280;14785;52.556;13.430;2022-12-10T03:55:27;100130.09;;;2.36;100.00
27294;BME280;14785;52.556;13.430;2022-12-10T03:57:55;100136.44;;;2.66;100.00
27294;BME280;14785;52.556;13.430;2022-12-10T04:00:23;100134.03;;;2.85;100.00
27294;BME280;14785;52.556;13.430;2022-12-10T04:02:49;100138.34;;;2.97;100.00
27294;BME280;14785;52.556;13.430;2022-12-10T04:05:32;100133.94;;;2.98;100.00
27294;BME280;14785;52.556;13.430;2022-12-10T04:08:00;100135.00;;;2.95;100.00
27294;BME280;14785;52.556;13.430;2022-12-10T04:10:25;100143.19;;;3.13;100.00
27294;BME280;14785;52.556;13.430;2022-12-10T04:12:51;100140.47;;;2.92;100.00
27294;BME280;14785;52.556;13.430;2022-12-10T04:15:38;100140.97;;;2.86;100.00
27294;BME280;14785;52.556;13.430;2022-12-10T04:18:22;100143.59;;;2.75;100.00
27294;BME280;14785;52.556;13.430;2022-12-10T04:20:47;100139.53;;;2.82;100.00
27294;BME280;14785;52.556;13.430;2022-12-10T04:23:33;100142.03;;;3.06;100.00
27294;BME280;14785;52.556;13.430;2022-12-10T04:26:17;100136.75;;;3.06;100.00
27294;BME280;14785;52.556;13.430;2022-12-10T04:29:01;100129.00;;;3.04;100.00
27294;BME280;14785;52.556;13.430;2022-12-10T04:31:30;100139.19;;;2.98;100.00
27294;BME280;14785;52.556;13.430;2022-12-10T04:33:58;100137.31;;;3.20;100.00
27294;BME280;14785;52.556;13.430;2022-12-10T04:36:24;100133.97;;;3.29;100.00
27294;BME280;14785;52.556;13.430;2022-12-10T04:38:49;100125.94;;;2.99;100.00
27294;BME280;14785;52.556;13.430;2022-12-10T04:41:14;100127.09;;;2.95;100.00
27294;BME280;14785;52.556;13.430;2022-12-10T04:43:41;100136.91;;;2.93;100.00
27294;BME280;14785;52.556;13.430;2022-12-10T04:46:09;100130.69;;;2.94;100.00
27294;BME280;14785;52.556;13.430;2022-12-10T04:48:34;100130.69;;;2.83;100.00
27294;BME280;14785;52.556;13.430;2022-12-10T04:51:00;100145.94;;;3.22;100.00
27294;BME280;14785;52.556;13.430;2022-12-10T04:53:25;100143.19;;;3.24;100.00
27294;BME280;14785;52.556;13.430;2022-12-10T04:55:52;100137.84;;;2.92;100.00
27294;BME280;14785;52.556;13.430;2022-12-10T04:58:17;100142.69;;;3.19;100.00
27294;BME280;14785;52.556;13.430;2022-12-10T05:00:43;100148.06;;;3.28;100.00
27294;BME280;14785;52.556;13.430;2022-12-10T05:03:11;100146.34;;;3.49;100.00
27294;BME280;14785;52.556;13.430;2022-12-10T05:05:36;100141.44;;;3.02;100.00
27294;BME280;14785;52.556;13.430;2022-12-10T05:08:02;100149.59;;;3.42;100.00
27294;BME280;14785;52.556;13.430;2022-12-10T05:10:34;100141.16;;;3.27;100.00
27294;BME280;14785;52.556;13.430;2022-12-10T05:12:59;100149.78;;;3.18;100.00
27294;BME280;14785;52.556;13.430;2022-12-10T05:15:24;100137.13;;;3.12;100.00
27294;BME280;14785;52.556;13.430;2022-12-10T05:17:50;100147.50;;;3.03;100.00
27294;BME280;14785;52.556;13.430;2022-12-10T05:20:15;100148.13;;;3.06;100.00
27294;BME280;14785;52.556;13.430;2022-12-10T05:22:43;100146.91;;;3.10;100.00
27294;BME280;14785;52.556;13.430;2022-12-10T05:25:27;100151.41;;;3.30;100.00
27294;BME280;14785;52.556;13.430;2022-12-10T05:27:53;100149.53;;;3.10;100.00
27294;BME280;14785;52.556;13.430;2022-12-10T05:30:39;100147.88;;;3.09;100.00
27294;BME280;14785;52.556;13.430;2022-12-10T05:33:07;100157.25;;;3.34;100.00
27294;BME280;14785;52.556;13.430;2022-12-10T05:35:33;100148.78;;;3.30;100.00
27294;BME280;14785;52.556;13.430;2022-12-10T05:38:01;100147.09;;;3.40;100.00
27294;BME280;14785;52.556;13.430;2022-12-10T05:40:27;100154.25;;;3.38;100.00
27294;BME280;14785;52.556;13.430;2022-12-10T05:42:52;100153.50;;;3.47;100.00
27294;BME280;14785;52.556;13.430;2022-12-10T05:45:21;100161.25;;;3.60;100.00
27294;BME280;14785;52.556;13.430;2022-12-10T05:47:47;100155.88;;;3.61;100.00
27294;BME280;14785;52.556;13.430;2022-12-10T05:50:12;100163.28;;;3.56;100.00
27294;BME280;14785;52.556;13.430;2022-12-10T05:52:37;100151.19;;;3.33;100.00
27294;BME280;14785;52.556;13.430;2022-12-10T05:55:03;100155.88;;;3.61;100.00
27294;BME280;14785;52.556;13.430;2022-12-10T05:57:31;100158.28;;;3.53;100.00
27294;BME280;14785;52.556;13.430;2022-12-10T05:59:58;100155.19;;;3.48;100.00
27294;BME280;14785;52.556;13.430;2022-12-10T06:02:33;100157.16;;;3.67;100.00
27294;BME280;14785;52.556;13.430;2022-12-10T06:04:58;100157.50;;;3.73;100.00
27294;BME280;14785;52.556;13.430;2022-12-10T06:07:24;100165.47;;;3.51;100.00
27294;BME280;14785;52.556;13.430;2022-12-10T06:09:50;100150.59;;;3.61;100.00
27294;BME280;14785;52.556;13.430;2022-12-10T06:12:15;100157.53;;;3.62;100.00
27294;BME280;14785;52.556;13.430;2022-12-10T06:14:42;100158.03;;;3.56;100.00
27294;BME280;14785;52.556;13.430;2022-12-10T06:17:07;100161.19;;;3.39;100.00
27294;BME280;14785;52.556;13.430;2022-12-10T06:19:33;100155.44;;;3.45;100.00
27294;BME280;14785;52.556;13.430;2022-12-10T06:21:59;100152.63;;;3.58;100.00
27294;BME280;14785;52.556;13.430;2022-12-10T06:24:28;100160.88;;;3.64;100.00
27294;BME280;14785;52.556;13.430;2022-12-10T06:26:56;100156.38;;;3.55;100.00
27294;BME280;14785;52.556;13.430;2022-12-10T06:29:22;100164.53;;;3.73;100.00
27294;BME280;14785;52.556;13.430;2022-12-10T06:31:48;100165.38;;;3.73;100.00
27294;BME280;14785;52.556;13.430;2022-12-10T06:34:13;100165.50;;;3.29;100.00
27294;BME280;14785;52.556;13.430;2022-12-10T06:36:39;100170.91;;;3.59;100.00
27294;BME280;14785;52.556;13.430;2022-12-10T06:39:10;100176.91;;;3.61;100.00
27294;BME280;14785;52.556;13.430;2022-12-10T06:41:36;100174.66;;;3.57;100.00
27294;BME280;14785;52.556;13.430;2022-12-10T06:44:01;100181.66;;;3.67;100.00
27294;BME280;14785;52.556;13.430;2022-12-10T06:46:29;100180.16;;;3.54;100.00
27294;BME280;14785;52.556;13.430;2022-12-10T06:48:55;100174.34;;;3.28;100.00
27294;BME280;14785;52.556;13.430;2022-12-10T06:51:21;100171.00;;;3.26;100.00
27294;BME280;14785;52.556;13.430;2022-12-10T06:53:46;100186.00;;;3.57;100.00
27294;BME280;14785;52.556;13.430;2022-12-10T06:56:17;100180.69;;;3.15;100.00
27294;BME280;14785;52.556;13.430;2022-12-10T06:58:49;100181.91;;;3.11;100.00
27294;BME280;14785;52.556;13.430;2022-12-10T07:01:22;100184.19;;;3.15;100.00
27294;BME280;14785;52.556;13.430;2022-12-10T07:03:55;100192.63;;;3.30;100.00
27294;BME280;14785;52.556;13.430;2022-12-10T07:06:22;100187.25;;;3.20;100.00
27294;BME280;14785;52.556;13.430;2022-12-10T07:08:48;100194.16;;;3.54;100.00
27294;BME280;14785;52.556;13.430;2022-12-10T07:11:24;100199.03;;;3.48;100.00
27294;BME280;14785;52.556;13.430;2022-12-10T07:13:50;100195.69;;;3.46;100.00
27294;BME280;14785;52.556;13.430;2022-12-10T07:16:20;100198.91;;;3.49;100.00
27294;BME280;14785;52.556;13.430;2022-12-10T07:18:51;100192.31;;;3.55;100.00
27294;BME280;14785;52.556;13.430;2022-12-10T07:21:20;100197.94;;;3.50;100.00
27294;BME280;14785;52.556;13.430;2022-12-10T07:23:52;100201.06;;;3.55;100.00
27294;BME280;14785;52.556;13.430;2022-12-10T07:26:28;100197.88;;;3.30;100.00
27294;BME280;14785;52.556;13.430;2022-12-10T07:29:03;100200.81;;;3.47;100.00
27294;BME280;14785;52.556;13.430;2022-12-10T07:31:29;100198.38;;;3.35;100.00
27294;BME280;14785;52.556;13.430;2022-12-10T07:34:06;100201.72;;;3.68;100.00
27294;BME280;14785;52.556;13.430;2022-12-10T07:36:33;100203.91;;;3.63;100.00
27294;BME280;14785;52.556;13.430;2022-12-10T07:39:06;100209.19;;;3.52;100.00
27294;BME280;14785;52.556;13.430;2022-12-10T07:41:35;100217.81;;;3.54;100.00
27294;BME280;14785;52.556;13.430;2022-12-10T07:44:04;100222.09;;;3.66;100.00
27294;BME280;14785;52.556;13.430;2022-12-10T07:46:36;100214.44;;;3.52;100.00
27294;BME280;14785;52.556;13.430;2022-12-10T07:49:05;100215.13;;;3.65;100.00
27294;BME280;14785;52.556;13.430;2022-12-10T07:51:33;100211.81;;;3.52;100.00
27294;BME280;14785;52.556;13.430;2022-12-10T07:53:59;100219.47;;;3.55;100.00
27294;BME280;14785;52.556;13.430;2022-12-10T07:56:27;100217.25;;;3.29;100.00
27294;BME280;14785;52.556;13.430;2022-12-10T07:58:52;100213.28;;;3.45;100.00
27294;BME280;14785;52.556;13.430;2022-12-10T08:01:40;100221.41;;;3.42;100.00
27294;BME280;14785;52.556;13.430;2022-12-10T08:04:14;100221.84;;;3.47;100.00
27294;BME280;14785;52.556;13.430;2022-12-10T08:06:49;100219.47;;;3.55;100.00
27294;BME280;14785;52.556;13.430;2022-12-10T08:09:18;100221.41;;;3.31;100.00
27294;BME280;14785;52.556;13.430;2022-12-10T08:11:47;100230.00;;;3.11;100.00
27294;BME280;14785;52.556;13.430;2022-12-10T08:14:32;100236.16;;;3.65;100.00
27294;BME280;14785;52.556;13.430;2022-12-10T08:17:13;100238.28;;;3.82;100.00
27294;BME280;14785;52.556;13.430;2022-12-10T08:19:51;100233.78;;;3.62;100.00
27294;BME280;14785;52.556;13.430;2022-12-10T08:25:36;100243.59;;;3.60;100.00
27294;BME280;14785;52.556;13.430;2022-12-10T08:31:23;100237.91;;;3.33;100.00
27294;BME280;14785;52.556;13.430;2022-12-10T08:34:18;100240.25;;;3.58;100.00
27294;BME280;14785;52.556;13.430;2022-12-10T08:36:47;100245.28;;;3.61;100.00
27294;BME280;14785;52.556;13.430;2022-12-10T08:39:45;100246.13;;;3.40;100.00
27294;BME280;14785;52.556;13.430;2022-12-10T08:42:31;100243.69;;;3.70;100.00
27294;BME280;14785;52.556;13.430;2022-12-10T08:45:15;100233.09;;;3.60;100.00
27294;BME280;14785;52.556;13.430;2022-12-10T08:47:44;100238.56;;;3.68;100.00
27294;BME280;14785;52.556;13.430;2022-12-10T08:50:09;100243.25;;;3.43;100.00
27294;BME280;14785;52.556;13.430;2022-12-10T08:52:41;100245.44;;;3.38;100.00
27294;BME280;14785;52.556;13.430;2022-12-10T08:55:10;100249.66;;;3.72;100.00
27294;BME280;14785;52.556;13.430;2022-12-10T08:57:36;100252.94;;;3.42;100.00
27294;BME280;14785;52.556;13.430;2022-12-10T09:00:03;100252.22;;;3.40;100.00
27294;BME280;14785;52.556;13.430;2022-12-10T09:02:32;100258.31;;;3.30;100.00
27294;BME280;14785;52.556;13.430;2022-12-10T09:05:01;100249.50;;;3.20;100.00
27294;BME280;14785;52.556;13.430;2022-12-10T09:07:28;100255.91;;;3.71;100.00
27294;BME280;14785;52.556;13.430;2022-12-10T09:09:59;100266.47;;;3.91;100.00
27294;BME280;14785;52.556;13.430;2022-12-10T09:12:24;100264.88;;;4.00;100.00
27294;BME280;14785;52.556;13.430;2022-12-10T09:14:50;100258.84;;;3.77;100.00
27294;BME280;14785;52.556;13.430;2022-12-10T09:17:20;100258.59;;;3.80;100.00
27294;BME280;14785;52.556;13.430;2022-12-10T09:19:46;100261.47;;;3.77;100.00
27294;BME280;14785;52.556;13.430;2022-12-10T09:22:22;100268.44;;;3.78;100.00
27294;BME280;14785;52.556;13.430;2022-12-10T09:25:11;100266.25;;;3.83;100.00
27294;BME280;14785;52.556;13.430;2022-12-10T09:27:55;100274.34;;;4.03;100.00
27294;BME280;14785;52.556;13.430;2022-12-10T09:31:17;100272.94;;;4.19;100.00
27294;BME280;14785;52.556;13.430;2022-12-10T09:36:28;100273.34;;;3.72;100.00
27294;BME280;14785;52.556;13.430;2022-12-10T09:38:57;100273.19;;;3.84;100.00
27294;BME280;14785;52.556;13.430;2022-12-10T09:47:13;100251.69;;;3.68;100.00
27294;BME280;14785;52.556;13.430;2022-12-10T09:52:49;100268.38;;;4.01;100.00
27294;BME280;14785;52.556;13.430;2022-12-10T09:55:40;100256.97;;;3.68;100.00
27294;BME280;14785;52.556;13.430;2022-12-10T09:58:29;100256.53;;;3.52;100.00
27294;BME280;14785;52.556;13.430;2022-12-10T10:01:01;100261.41;;;3.68;100.00
27294;BME280;14785;52.556;13.430;2022-12-10T10:03:31;100265.97;;;4.09;100.00
27294;BME280;14785;52.556;13.430;2022-12-10T10:06:10;100263.25;;;4.20;100.00
27294;BME280;14785;52.556;13.430;2022-12-10T10:08:55;100260.38;;;4.23;100.00
27294;BME280;14785;52.556;13.430;2022-12-10T10:11:24;100263.50;;;4.48;100.00
27294;BME280;14785;52.556;13.430;2022-12-10T10:14:12;100259.97;;;4.59;100.00
27294;BME280;14785;52.556;13.430;2022-12-10T10:16:48;100257.75;;;4.23;100.00
27294;BME280;14785;52.556;13.430;2022-12-10T10:19:28;100265.91;;;4.20;100.00
27294;BME280;14785;52.556;13.430;2022-12-10T10:21:58;100260.94;;;4.06;100.00
27294;BME280;14785;52.556;13.430;2022-12-10T10:24:40;100270.69;;;4.15;100.00
27294;BME280;14785;52.556;13.430;2022-12-10T10:27:20;100260.06;;;3.84;100.00
27294;BME280;14785;52.556;13.430;2022-12-10T10:29:54;100263.56;;;4.06;100.00
27294;BME280;14785;52.556;13.430;2022-12-10T10:35:02;100265.44;;;4.15;100.00
27294;BME280;14785;52.556;13.430;2022-12-10T10:37:38;100267.63;;;4.10;100.00
27294;BME280;14785;52.556;13.430;2022-12-10T10:40:06;100258.91;;;4.30;100.00
27294;BME280;14785;52.556;13.430;2022-12-10T10:42:39;100264.56;;;4.25;100.00
27294;BME280;14785;52.556;13.430;2022-12-10T10:48:10;100251.00;;;4.09;100.00
27294;BME280;14785;52.556;13.430;2022-12-10T10:53:30;100240.56;;;4.19;100.00
27294;BME280;14785;52.556;13.430;2022-12-10T11:01:52;100240.41;;;4.00;100.00
27294;BME280;14785;52.556;13.430;2022-12-10T11:07:38;100227.34;;;3.66;100.00
27294;BME280;14785;52.556;13.430;2022-12-10T11:10:33;100233.69;;;3.95;100.00
27294;BME280;14785;52.556;13.430;2022-12-10T11:13:07;100229.13;;;3.66;100.00
27294;BME280;14785;52.556;13.430;2022-12-10T11:15:47;100227.03;;;3.91;100.00
27294;BME280;14785;52.556;13.430;2022-12-10T11:18:41;100230.03;;;4.19;100.00
27294;BME280;14785;52.556;13.430;2022-12-10T11:23:39;100222.88;;;4.10;100.00
27294;BME280;14785;52.556;13.430;2022-12-10T11:38:00;100226.81;;;4.36;100.00
27294;BME280;14785;52.556;13.430;2022-12-10T11:40:50;100224.31;;;4.34;100.00
27294;BME280;14785;52.556;13.430;2022-12-10T11:51:56;100223.06;;;4.18;100.00
27294;BME280;14785;52.556;13.430;2022-12-10T11:57:59;100218.31;;;4.12;100.00
27294;BME280;14785;52.556;13.430;2022-12-10T12:08:53;100227.78;;;4.35;100.00
27294;BME280;14785;52.556;13.430;2022-12-10T12:14:43;100227.06;;;4.33;100.00
27294;BME280;14785;52.556;13.430;2022-12-10T12:19:55;100234.75;;;4.04;100.00
27294;BME280;14785;52.556;13.430;2022-12-10T12:22:23;100229.31;;;4.17;100.00
27294;BME280;14785;52.556;13.430;2022-12-10T12:25:07;100235.53;;;4.16;100.00
27294;BME280;14785;52.556;13.430;2022-12-10T12:27:50;100235.28;;;4.19;100.00
27294;BME280;14785;52.556;13.430;2022-12-10T12:30:22;100237.19;;;4.17;100.00
27294;BME280;14785;52.556;13.430;2022-12-10T12:35:36;100234.44;;;4.18;100.00
27294;BME280;14785;52.556;13.430;2022-12-10T12:41:26;100247.41;;;4.10;100.00
27294;BME280;14785;52.556;13.430;2022-12-10T12:46:56;100242.41;;;3.53;100.00
27294;BME280;14785;52.556;13.430;2022-12-10T12:49:42;100239.38;;;4.12;100.00
27294;BME280;14785;52.556;13.430;2022-12-10T12:52:46;100239.59;;;4.40;100.00
27294;BME280;14785;52.556;13.430;2022-12-10T12:58:40;100241.97;;;4.23;100.00
27294;BME280;14785;52.556;13.430;2022-12-10T13:04:01;100238.44;;;4.54;100.00
27294;BME280;14785;52.556;13.430;2022-12-10T13:06:32;100239.78;;;4.69;100.00
27294;BME280;14785;52.556;13.430;2022-12-10T13:09:24;100243.91;;;4.62;100.00
27294;BME280;14785;52.556;13.430;2022-12-10T13:14:36;100252.38;;;4.45;100.00
27294;BME280;14785;52.556;13.430;2022-12-10T13:17:34;100251.22;;;4.38;100.00
27294;BME280;14785;52.556;13.430;2022-12-10T13:28:30;100257.72;;;4.34;100.00
27294;BME280;14785;52.556;13.430;2022-12-10T13:31:34;100260.09;;;4.37;100.00
27294;BME280;14785;52.556;13.430;2022-12-10T13:39:59;100269.38;;;4.20;100.00
27294;BME280;14785;52.556;13.430;2022-12-10T13:42:27;100276.53;;;4.50;100.00
27294;BME280;14785;52.556;13.430;2022-12-10T13:45:27;100272.38;;;4.47;100.00
27294;BME280;14785;52.556;13.430;2022-12-10T13:48:16;100269.53;;;4.08;100.00
27294;BME280;14785;52.556;13.430;2022-12-10T13:50:49;100272.03;;;4.09;100.00
27294;BME280;14785;52.556;13.430;2022-12-10T14:06:44;100284.66;;;4.26;100.00
27294;BME280;14785;52.556;13.430;2022-12-10T14:09:19;100282.66;;;4.19;100.00
27294;BME280;14785;52.556;13.430;2022-12-10T14:12:10;100274.44;;;3.69;100.00
27294;BME280;14785;52.556;13.430;2022-12-10T14:14:42;100277.38;;;3.87;100.00
27294;BME280;14785;52.556;13.430;2022-12-10T14:17:17;100280.88;;;3.76;100.00
27294;BME280;14785;52.556;13.430;2022-12-10T14:19:45;100282.50;;;4.00;100.00
27294;BME280;14785;52.556;13.430;2022-12-10T14:22:39;100279.63;;;4.03;100.00
27294;BME280;14785;52.556;13.430;2022-12-10T14:25:15;100286.97;;;4.20;100.00
27294;BME280;14785;52.556;13.430;2022-12-10T14:27:42;100276.50;;;4.09;100.00
27294;BME280;14785;52.556;13.430;2022-12-10T14:30:25;100274.84;;;3.97;100.00
27294;BME280;14785;52.556;13.430;2022-12-10T14:32:57;100283.91;;;4.04;100.00
27294;BME280;14785;52.556;13.430;2022-12-10T14:35:28;100274.78;;;3.65;100.00
27294;BME280;14785;52.556;13.430;2022-12-10T14:37:56;100282.69;;;4.08;100.00
27294;BME280;14785;52.556;13.430;2022-12-10T14:42:50;100276.28;;;3.89;100.00
27294;BME280;14785;52.556;13.430;2022-12-10T14:45:19;100277.75;;;3.71;100.00
27294;BME280;14785;52.556;13.430;2022-12-10T14:47:47;100280.22;;;3.95;100.00
27294;BME280;14785;52.556;13.430;2022-12-10T14:50:15;100291.31;;;3.98;100.00
27294;BME280;14785;52.556;13.430;2022-12-10T14:53:00;100291.38;;;3.76;100.00
27294;BME280;14785;52.556;13.430;2022-12-10T14:55:26;100289.91;;;3.94;100.00
27294;BME280;14785;52.556;13.430;2022-12-10T14:57:58;100295.59;;;3.57;100.00
27294;BME280;14785;52.556;13.430;2022-12-10T15:00:25;100294.03;;;3.65;100.00
27294;BME280;14785;52.556;13.430;2022-12-10T15:02:55;100302.03;;;3.64;100.00
27294;BME280;14785;52.556;13.430;2022-12-10T15:05:24;100302.88;;;3.75;100.00
27294;BME280;14785;52.556;13.430;2022-12-10T15:07:59;100294.97;;;3.75;100.00
27294;BME280;14785;52.556;13.430;2022-12-10T15:10:31;100299.50;;;3.84;100.00
27294;BME280;14785;52.556;13.430;2022-12-10T15:13:01;100300.66;;;4.03;100.00
27294;BME280;14785;52.556;13.430;2022-12-10T15:15:36;100295.84;;;4.08;100.00
27294;BME280;14785;52.556;13.430;2022-12-10T15:21:09;100298.66;;;3.84;100.00
27294;BME280;14785;52.556;13.430;2022-12-10T15:23:36;100293.78;;;3.68;100.00
27294;BME280;14785;52.556;13.430;2022-12-10T15:26:21;100294.00;;;3.87;100.00
27294;BME280;14785;52.556;13.430;2022-12-10T15:28:49;100304.16;;;3.92;100.00
27294;BME280;14785;52.556;13.430;2022-12-10T15:31:22;100300.00;;;3.78;100.00
27294;BME280;14785;52.556;13.430;2022-12-10T15:38:49;100308.81;;;4.00;100.00